NATURA VA

 METAR AND TAF INFORMATION
METAR FOR DAOO
ADDS - METARS form results

(0413 UTC 16 January 2019)
Data provider http://aviationweather.gov/metar/data/
 
METAR text: DAOO 160400Z 00000KT 9999 BKN026 07/06 Q1019
Conditions at: DAOO (ORAN/ES SENIA , DZ) observed 0400 UTC 16 January 2019
Temperature: 7.0°C (45°F)
Dewpoint: 6.0°C (43°F) [RH = 93%]
Pressure (altimeter): 30.09 inches Hg (1019.0 mb)
Winds: calm
Visibility: 6 or more miles (10+ km)
Ceiling: 2600 feet AGL
Clouds: broken clouds at 2600 feet AGL
Weather: no significant weather observed at this time

METAR text: DAOO 160330Z 00000KT 9999 SCT026 07/06 Q1020
Conditions at: DAOO (ORAN/ES SENIA , DZ) observed 0330 UTC 16 January 2019
Temperature: 7.0°C (45°F)
Dewpoint: 6.0°C (43°F) [RH = 93%]
Pressure (altimeter): 30.12 inches Hg (1020.0 mb)
Winds: calm
Visibility: 6 or more miles (10+ km)
Ceiling: at least 12,000 feet AGL
Clouds: scattered clouds at 2600 feet AGL
Weather: no significant weather observed at this time

Forecast for: DAOO (ORAN/ES SENIA , DZ)
Text: TAF DAOO 152300Z 1600/1624 VRB02KT 9999 SCT026
Forecast period: 0000 UTC 16 January 2019 to 0000 UTC 17 January 2019
Forecast type: FROM: standard forecast or significant change
Winds: variable direction winds at 2 MPH (2 knots; 1.0 m/s)
Visibility: 6 or more miles 10+ km)
Ceiling: at least 12,000 feet AGL
Clouds: scattered clouds at 2600 feet AGL
Weather: no significant weather forecast for this period
Text: PROB40
Forecast period: 0000 to 0900 UTC 16 January 2019
Forecast type: TEMPORARY: The following changes expected for less than half the time period
Visibility: 1.24 miles (2.00 km)
Ceiling: 1000 feet AGL
Clouds: broken clouds at 1000 feet AGL
Weather: BR  (mist)
Text: TEMPO 1600/1609 2000 BR BKN010
Forecast period: 1200 to 1800 UTC 16 January 2019
Forecast type: TEMPORARY: The following changes expected for less than half the time period
Winds: from the W (280 degrees) at 14 MPH (12 knots; 6.2 m/s)
Visibility: missing
Ceiling: unknown
Clouds: missing
Weather: no significant weather forecast for this period

 AIRPORT MAP

 RUNWAY INFORMATION
Runway 07 Runway length 10039 ft Runway width 148 ft
Runway elevation 295 ft Runway displaced threshold 0 ft Runway heading 67
Runway 25 Runway length 10039 ft Runway width 148 ft
Runway elevation 295 ft Runway displaced threshold 196 ft Runway heading 247

 AIRPORT FREQUENCIES
Type APP Name ORAN APP Frequency 128.2 MHZ
Type TWR Name ORAN TWR Frequency 118.1 MHZ

 AIRPORT NEAR NAVIGATION AIDS
Type VOR-DME Name Oran Frequency 114000 KHZ



Powered by Virtual Airlines Manager [v2.6.2]